createdAt,value
2023-01-17T00:00:54.030Z,77.46
2023-01-17T00:03:22.548Z,77.47
2023-01-17T00:06:09.689Z,77.55
2023-01-17T00:08:56.570Z,77.64
2023-01-17T00:11:25.719Z,77.64
2023-01-17T00:13:54.254Z,77.93
2023-01-17T00:16:22.923Z,78.06
2023-01-17T00:19:11.985Z,77.66
2023-01-17T00:21:58.920Z,77.85
2023-01-17T00:24:45.891Z,78.60
2023-01-17T00:27:14.531Z,77.32
2023-01-17T00:29:42.897Z,78.05
2023-01-17T00:32:11.411Z,77.81
2023-01-17T00:34:40.130Z,78.26
2023-01-17T00:37:08.759Z,78.31
2023-01-17T00:39:37.347Z,77.47
2023-01-17T00:42:05.808Z,77.87
2023-01-17T00:44:53.038Z,77.98
2023-01-17T00:47:40.652Z,77.89
2023-01-17T00:50:28.159Z,78.84
2023-01-17T00:53:14.929Z,78.92
2023-01-17T00:56:01.815Z,77.49
2023-01-17T00:58:48.715Z,78.19
2023-01-17T01:01:36.206Z,77.79
2023-01-17T01:04:23.589Z,77.88
2023-01-17T01:07:10.743Z,78.36
2023-01-17T01:09:57.759Z,78.42
2023-01-17T01:12:45.352Z,77.86
2023-01-17T01:15:32.227Z,78.39
2023-01-17T01:18:27.916Z,78.32
2023-01-17T01:21:14.714Z,77.05
2023-01-17T01:24:04.587Z,78.18
2023-01-17T01:26:51.586Z,78.04
2023-01-17T01:29:38.567Z,77.89
2023-01-17T01:32:25.226Z,77.34
2023-01-17T01:34:53.870Z,78.91
2023-01-17T01:37:22.712Z,78.32
2023-01-17T01:39:51.363Z,78.09
2023-01-17T01:42:19.933Z,78.02
2023-01-17T01:44:54.209Z,77.14
2023-01-17T01:47:37.669Z,78.35
2023-01-17T01:50:09.810Z,78.01
2023-01-17T01:52:43.369Z,78.95
2023-01-17T01:55:24.904Z,78.59
2023-01-17T01:57:59.791Z,77.97
2023-01-17T02:00:36.767Z,76.93
2023-01-17T02:03:16.129Z,78.32
2023-01-17T02:05:45.344Z,77.19
2023-01-17T02:08:17.914Z,76.86
2023-01-17T02:10:47.209Z,77.51
2023-01-17T02:13:19.872Z,77.83
2023-01-17T02:16:16.802Z,77.81
2023-01-17T02:19:18.739Z,77.46
2023-01-17T02:22:16.715Z,76.82
2023-01-17T02:25:24.429Z,77.65
2023-01-17T02:28:33.795Z,77.13
2023-01-17T02:31:15.445Z,76.70
2023-01-17T02:34:07.849Z,77.17
2023-01-17T02:36:43.277Z,76.65
2023-01-17T02:39:41.248Z,78.12
2023-01-17T02:42:15.547Z,77.59
2023-01-17T02:44:45.634Z,77.50
2023-01-17T02:47:31.828Z,77.12
2023-01-17T02:50:20.921Z,77.12
2023-01-17T02:53:10.417Z,77.98
2023-01-17T02:56:09.220Z,77.62
2023-01-17T02:58:51.815Z,77.08
2023-01-17T03:01:43.762Z,77.79
2023-01-17T03:04:50.465Z,77.19
2023-01-17T03:07:25.232Z,77.69
2023-01-17T03:10:00.275Z,78.28
2023-01-17T03:12:35.385Z,77.62
2023-01-17T03:15:04.459Z,77.72
2023-01-17T03:17:34.240Z,77.75
2023-01-17T03:20:02.882Z,78.21
2023-01-17T03:22:31.605Z,78.00
2023-01-17T03:25:00.297Z,78.40
2023-01-17T03:27:28.999Z,78.10
2023-01-17T03:29:57.906Z,78.51
2023-01-17T03:32:26.636Z,77.85
2023-01-17T03:34:55.395Z,77.89
2023-01-17T03:37:24.061Z,78.27
2023-01-17T03:39:52.774Z,77.85
2023-01-17T03:42:21.218Z,77.67
2023-01-17T03:44:50.103Z,78.14
2023-01-17T03:47:18.743Z,77.99
2023-01-17T03:49:47.448Z,77.67
2023-01-17T03:52:15.966Z,77.81
2023-01-17T03:54:44.799Z,78.06
2023-01-17T03:57:13.499Z,78.04
2023-01-17T03:59:42.168Z,78.12
2023-01-17T04:02:14.241Z,77.82
2023-01-17T04:04:42.767Z,76.92
2023-01-17T04:07:11.154Z,77.02
2023-01-17T04:09:39.816Z,77.05
2023-01-17T04:12:08.616Z,77.92
2023-01-17T04:14:37.402Z,76.73
2023-01-17T04:17:06.076Z,76.20
2023-01-17T04:19:37.318Z,76.53
2023-01-17T04:22:05.855Z,75.25
2023-01-17T04:24:34.625Z,75.68
2023-01-17T04:27:04.688Z,75.20
2023-01-17T04:29:33.614Z,76.12
2023-01-17T04:32:02.316Z,76.19
2023-01-17T04:34:30.957Z,74.53
2023-01-17T04:36:59.538Z,74.30
2023-01-17T04:39:28.206Z,74.48
2023-01-17T04:41:56.999Z,73.99
2023-01-17T04:44:25.918Z,74.04
2023-01-17T04:46:54.641Z,74.08
2023-01-17T04:49:23.474Z,73.26
2023-01-17T04:51:52.359Z,72.59
2023-01-17T04:54:21.234Z,73.20
2023-01-17T04:56:49.956Z,72.61
2023-01-17T04:59:21.399Z,72.46
2023-01-17T05:01:50.366Z,71.73
2023-01-17T05:04:18.996Z,71.90
2023-01-17T05:06:47.684Z,71.16
2023-01-17T05:09:16.476Z,70.91
2023-01-17T05:11:45.346Z,70.82
2023-01-17T05:14:14.005Z,70.43
2023-01-17T05:16:43.016Z,69.82
2023-01-17T05:19:11.594Z,69.86
2023-01-17T05:21:40.288Z,69.89
2023-01-17T05:24:08.825Z,69.90
2023-01-17T05:26:37.617Z,69.85
2023-01-17T05:29:06.186Z,69.12
2023-01-17T05:31:34.924Z,68.86
2023-01-17T05:34:04.165Z,69.05
2023-01-17T05:36:32.985Z,68.44
2023-01-17T05:39:01.626Z,68.17
2023-01-17T05:41:30.209Z,68.20
2023-01-17T05:43:59.017Z,67.84
2023-01-17T05:46:27.697Z,67.45
2023-01-17T05:48:56.525Z,67.65
2023-01-17T05:51:25.217Z,67.14
2023-01-17T05:53:53.762Z,67.38
2023-01-17T05:56:22.522Z,67.37
2023-01-17T05:58:51.177Z,67.09
2023-01-17T06:01:20.325Z,67.03
2023-01-17T06:03:49.037Z,67.36
2023-01-17T06:06:17.596Z,66.25
2023-01-17T06:08:46.317Z,65.83
2023-01-17T06:11:15.060Z,65.66
2023-01-17T06:13:43.697Z,65.48
2023-01-17T06:16:12.290Z,65.31
2023-01-17T06:18:41.041Z,65.97
2023-01-17T06:21:09.556Z,64.92
2023-01-17T06:23:40.717Z,65.28
2023-01-17T06:26:10.657Z,65.49
2023-01-17T06:28:39.418Z,64.26
2023-01-17T06:31:09.857Z,64.29
2023-01-17T06:33:38.584Z,64.06
2023-01-17T06:36:07.225Z,64.56
2023-01-17T06:38:35.978Z,63.50
2023-01-17T06:41:06.276Z,64.11
2023-01-17T06:43:35.922Z,63.15
2023-01-17T06:46:04.714Z,62.77
2023-01-17T06:48:33.718Z,62.79
2023-01-17T06:51:02.297Z,63.20
2023-01-17T06:53:30.709Z,63.22
2023-01-17T06:55:59.561Z,63.03
2023-01-17T06:58:28.301Z,63.10
2023-01-17T07:00:57.217Z,63.07
2023-01-17T07:03:27.860Z,62.60
2023-01-17T07:05:56.584Z,62.45
2023-01-17T07:08:25.257Z,61.89
2023-01-17T07:11:02.979Z,62.12
2023-01-17T07:13:36.446Z,61.65
2023-01-17T07:16:06.462Z,62.08
2023-01-17T07:18:35.958Z,62.67
2023-01-17T07:21:04.921Z,61.88
2023-01-17T07:23:33.674Z,62.21
2023-01-17T07:26:02.339Z,61.31
2023-01-17T07:28:30.957Z,62.33
2023-01-17T07:30:59.553Z,61.31
2023-01-17T07:33:28.277Z,61.33
2023-01-17T07:35:56.967Z,61.97
2023-01-17T07:38:25.769Z,60.65
2023-01-17T07:41:00.772Z,60.77
2023-01-17T07:43:29.364Z,60.21
2023-01-17T07:45:58.507Z,60.54
2023-01-17T07:48:27.853Z,60.85
2023-01-17T07:50:58.561Z,60.78
2023-01-17T07:53:29.627Z,59.87
2023-01-17T07:56:05.977Z,59.49
2023-01-17T07:58:35.950Z,59.44
2023-01-17T08:01:09.055Z,59.63
2023-01-17T08:03:40.586Z,59.31
2023-01-17T08:06:21.741Z,58.51
2023-01-17T08:08:50.443Z,59.60
2023-01-17T08:11:21.583Z,59.48
2023-01-17T08:13:50.717Z,59.44
2023-01-17T08:16:19.270Z,58.50
2023-01-17T08:18:48.002Z,58.86
2023-01-17T08:21:17.889Z,57.73
2023-01-17T08:23:51.088Z,57.60
2023-01-17T08:26:24.281Z,58.34
2023-01-17T08:28:58.259Z,58.13
2023-01-17T08:31:28.389Z,57.87
2023-01-17T08:33:58.365Z,58.37
2023-01-17T08:36:28.338Z,57.88
2023-01-17T08:38:57.101Z,58.34
2023-01-17T08:41:28.504Z,58.44
2023-01-17T08:43:58.064Z,57.74
2023-01-17T08:46:26.579Z,58.32
2023-01-17T08:48:59.501Z,57.79
2023-01-17T08:51:29.064Z,58.98
2023-01-17T08:53:58.966Z,57.46
2023-01-17T08:56:28.018Z,57.77
2023-01-17T08:58:59.297Z,58.06
2023-01-17T09:01:29.950Z,57.56
2023-01-17T09:03:58.710Z,57.73
2023-01-17T09:06:27.441Z,57.73
2023-01-17T09:08:56.198Z,57.18
2023-01-17T09:11:24.953Z,56.90
2023-01-17T09:13:53.679Z,56.13
2023-01-17T09:16:22.678Z,57.21
2023-01-17T09:18:55.941Z,56.52
2023-01-17T09:21:25.801Z,56.77
2023-01-17T09:23:55.192Z,56.58
2023-01-17T09:26:29.346Z,56.40
2023-01-17T09:28:59.279Z,56.51
2023-01-17T09:31:28.265Z,57.04
2023-01-17T09:33:58.482Z,57.53
2023-01-17T09:36:29.651Z,57.54
2023-01-17T09:38:59.719Z,57.24
2023-01-17T09:41:35.719Z,57.82
2023-01-17T09:44:14.761Z,57.28
2023-01-17T09:46:47.180Z,57.83
2023-01-17T09:49:34.320Z,57.10
2023-01-17T09:52:03.427Z,57.11
2023-01-17T09:54:38.647Z,57.64
2023-01-17T09:57:18.383Z,57.88
2023-01-17T10:00:17.117Z,57.61
2023-01-17T10:03:22.845Z,57.01
2023-01-17T10:06:16.114Z,57.48
2023-01-17T10:08:49.132Z,57.43
2023-01-17T10:11:37.261Z,56.97
2023-01-17T10:14:35.389Z,57.52
2023-01-17T10:17:22.100Z,57.56
2023-01-17T10:20:12.059Z,57.76
2023-01-17T10:23:13.201Z,57.71
2023-01-17T10:25:43.734Z,58.15
2023-01-17T10:28:31.774Z,56.26
2023-01-17T10:31:11.389Z,56.99
2023-01-17T10:33:57.829Z,56.51
2023-01-17T10:36:28.739Z,56.91
2023-01-17T10:39:02.642Z,56.76
2023-01-17T10:41:39.750Z,56.94
2023-01-17T10:44:35.785Z,57.32
2023-01-17T10:47:21.666Z,57.37
2023-01-17T10:49:53.762Z,57.10
2023-01-17T10:52:45.980Z,57.12
2023-01-17T10:55:14.880Z,57.51
2023-01-17T10:57:49.068Z,57.97
2023-01-17T11:00:30.916Z,57.03
2023-01-17T11:03:01.243Z,58.06
2023-01-17T11:05:34.559Z,57.92
2023-01-17T11:08:09.386Z,57.15
2023-01-17T11:10:54.902Z,58.03
2023-01-17T11:13:35.092Z,58.01
2023-01-17T11:16:21.765Z,57.67
2023-01-17T11:19:09.847Z,58.15
2023-01-17T11:21:40.353Z,58.16
2023-01-17T11:24:19.791Z,58.14
2023-01-17T11:26:50.218Z,58.27
2023-01-17T11:29:39.689Z,57.67
2023-01-17T11:32:35.784Z,57.95
2023-01-17T11:35:17.611Z,58.00
2023-01-17T11:38:00.111Z,57.45
2023-01-17T11:40:38.038Z,58.44
2023-01-17T11:43:19.470Z,57.91
2023-01-17T11:46:06.630Z,58.74
2023-01-17T11:48:38.551Z,58.50
2023-01-17T11:51:24.012Z,57.56
2023-01-17T11:53:55.052Z,58.19
2023-01-17T11:56:37.546Z,58.37
2023-01-17T11:59:22.315Z,58.43
2023-01-17T12:02:09.586Z,58.40
2023-01-17T12:04:50.106Z,58.58
2023-01-17T12:07:29.282Z,58.46
2023-01-17T12:10:10.397Z,58.43
2023-01-17T12:13:24.038Z,58.94
2023-01-17T12:16:32.732Z,59.86
2023-01-17T12:19:17.418Z,58.66
2023-01-17T12:22:23.567Z,58.80
2023-01-17T12:24:59.256Z,59.89
2023-01-17T12:27:42.515Z,58.15
2023-01-17T12:30:31.512Z,58.54
2023-01-17T12:33:22.451Z,58.67
2023-01-17T12:36:00.689Z,58.14
2023-01-17T12:38:49.132Z,59.19
2023-01-17T12:41:29.827Z,58.55
2023-01-17T12:44:01.612Z,58.87
2023-01-17T12:46:45.781Z,58.05
2023-01-17T12:49:38.252Z,58.49
2023-01-17T12:52:17.831Z,58.44
2023-01-17T12:54:51.168Z,57.42
2023-01-17T12:57:41.743Z,58.20
2023-01-17T13:00:26.225Z,58.57
2023-01-17T13:03:25.511Z,58.73
2023-01-17T13:05:56.153Z,58.10
2023-01-17T13:08:24.963Z,58.00
2023-01-17T13:11:07.231Z,58.41
2023-01-17T13:13:36.897Z,58.35
2023-01-17T13:16:21.984Z,58.50
2023-01-17T13:18:52.750Z,58.93
2023-01-17T13:21:33.738Z,57.73
2023-01-17T13:24:08.473Z,58.50
2023-01-17T13:26:52.147Z,58.86
2023-01-17T13:29:57.850Z,57.38
2023-01-17T13:32:57.172Z,58.00
2023-01-17T13:35:42.763Z,57.17
2023-01-17T13:38:23.175Z,57.39
2023-01-17T13:41:10.754Z,56.85
2023-01-17T13:44:03.691Z,57.87
2023-01-17T13:46:52.619Z,57.60
2023-01-17T13:49:43.119Z,57.31
2023-01-17T13:52:21.027Z,57.81
2023-01-17T13:54:55.863Z,58.04
2023-01-17T13:57:29.884Z,57.22
2023-01-17T14:00:27.974Z,56.59
2023-01-17T14:02:57.125Z,57.00
2023-01-17T14:05:31.483Z,56.78
2023-01-17T14:08:19.893Z,57.56
2023-01-17T14:10:55.397Z,56.55
2023-01-17T14:13:32.907Z,57.28
2023-01-17T14:16:03.345Z,57.65
2023-01-17T14:18:40.749Z,56.84
2023-01-17T14:21:29.808Z,57.19
2023-01-17T14:24:04.515Z,57.78
2023-01-17T14:26:38.216Z,56.63
2023-01-17T14:29:48.027Z,56.81
2023-01-17T14:32:23.058Z,57.60
2023-01-17T14:34:53.525Z,57.53
2023-01-17T14:37:34.189Z,57.14
2023-01-17T14:40:03.046Z,57.61
2023-01-17T14:42:34.063Z,57.14
2023-01-17T14:45:09.120Z,56.57
2023-01-17T14:47:40.536Z,57.97
2023-01-17T14:50:15.344Z,57.65
2023-01-17T14:52:45.852Z,57.63
2023-01-17T14:55:20.961Z,57.46
2023-01-17T14:57:57.422Z,56.25
2023-01-17T15:00:29.921Z,58.10
2023-01-17T15:03:00.316Z,57.69
2023-01-17T15:05:31.172Z,58.07
2023-01-17T15:08:02.689Z,57.15
2023-01-17T15:10:33.981Z,56.45
2023-01-17T15:13:12.134Z,56.88
2023-01-17T15:15:44.014Z,56.97
2023-01-17T15:18:15.825Z,58.07
2023-01-17T15:20:51.198Z,56.50
2023-01-17T15:23:25.954Z,57.89
2023-01-17T15:25:54.999Z,57.68
2023-01-17T15:28:24.041Z,56.06
2023-01-17T15:31:10.026Z,57.41
2023-01-17T15:33:42.104Z,56.44
2023-01-17T15:36:33.866Z,56.42
2023-01-17T15:39:17.044Z,56.66
2023-01-17T15:41:45.926Z,55.94
2023-01-17T15:44:48.423Z,56.97
2023-01-17T15:47:34.713Z,55.58
2023-01-17T15:50:41.862Z,54.68
2023-01-17T15:53:30.656Z,56.03
2023-01-17T15:56:01.691Z,56.21
2023-01-17T15:58:31.494Z,56.69
2023-01-17T16:01:02.640Z,56.85
2023-01-17T16:03:32.262Z,56.25
2023-01-17T16:06:03.927Z,55.72
2023-01-17T16:08:41.133Z,56.11
2023-01-17T16:11:12.370Z,56.41
2023-01-17T16:13:43.756Z,56.73
2023-01-17T16:16:15.542Z,55.46
2023-01-17T16:18:45.087Z,56.29
2023-01-17T16:21:20.873Z,56.17
2023-01-17T16:23:50.212Z,55.74
2023-01-17T16:26:22.084Z,55.42
2023-01-17T16:28:51.066Z,55.64
2023-01-17T16:31:19.943Z,56.30
2023-01-17T16:33:51.416Z,55.26
2023-01-17T16:36:22.669Z,55.69
2023-01-17T16:38:52.849Z,55.70
2023-01-17T16:41:22.395Z,55.20
2023-01-17T16:43:59.518Z,54.99
2023-01-17T16:46:28.610Z,55.69
2023-01-17T16:48:57.678Z,55.68
2023-01-17T16:51:26.487Z,54.80
2023-01-17T16:53:57.737Z,54.86
2023-01-17T16:56:26.648Z,54.66
2023-01-17T16:58:55.593Z,55.58
2023-01-17T17:01:25.944Z,54.86
2023-01-17T17:03:54.650Z,54.78
2023-01-17T17:06:23.365Z,55.58
2023-01-17T17:08:52.400Z,55.16
2023-01-17T17:11:24.901Z,55.61
2023-01-17T17:13:53.859Z,55.62
2023-01-17T17:16:35.816Z,55.19
2023-01-17T17:19:07.604Z,55.13
2023-01-17T17:21:38.656Z,54.85
2023-01-17T17:24:07.809Z,55.64
2023-01-17T17:26:37.589Z,55.87
2023-01-17T17:29:08.617Z,54.94
2023-01-17T17:31:48.395Z,55.39
2023-01-17T17:34:20.083Z,55.48
2023-01-17T17:36:48.748Z,56.01
2023-01-17T17:39:17.454Z,55.40
2023-01-17T17:41:46.585Z,55.13
2023-01-17T17:44:15.684Z,55.61
2023-01-17T17:46:45.347Z,55.94
2023-01-17T17:49:14.077Z,55.76
2023-01-17T17:51:42.999Z,55.14
2023-01-17T17:54:13.455Z,55.02
2023-01-17T17:56:48.239Z,54.99
2023-01-17T17:59:21.113Z,54.99
2023-01-17T18:01:50.314Z,55.29
2023-01-17T18:04:19.839Z,54.46
2023-01-17T18:06:48.573Z,55.61
2023-01-17T18:09:17.456Z,54.37
2023-01-17T18:11:46.219Z,55.06
2023-01-17T18:14:16.575Z,54.83
2023-01-17T18:16:45.860Z,54.38
2023-01-17T18:19:22.444Z,54.71
2023-01-17T18:21:53.359Z,54.20
2023-01-17T18:24:24.810Z,54.20
2023-01-17T18:26:57.796Z,54.71
2023-01-17T18:29:28.001Z,54.37
2023-01-17T18:31:57.269Z,54.64
2023-01-17T18:34:30.182Z,54.39
2023-01-17T18:36:59.207Z,54.73
2023-01-17T18:39:32.776Z,53.98
2023-01-17T18:42:01.378Z,54.48
2023-01-17T18:44:30.827Z,54.41
2023-01-17T18:47:05.256Z,53.68
2023-01-17T18:49:34.737Z,54.37
2023-01-17T18:52:03.649Z,54.60
2023-01-17T18:54:32.715Z,54.07
2023-01-17T18:57:01.358Z,54.00
2023-01-17T18:59:29.872Z,54.55
2023-01-17T19:01:59.495Z,54.28
2023-01-17T19:04:29.199Z,54.27
2023-01-17T19:06:58.082Z,54.20
2023-01-17T19:09:26.876Z,54.02
2023-01-17T19:11:55.512Z,54.29
2023-01-17T19:14:24.115Z,54.33
2023-01-17T19:16:53.040Z,54.61
2023-01-17T19:19:21.883Z,55.34
2023-01-17T19:21:53.331Z,55.11
2023-01-17T19:24:22.081Z,54.46
2023-01-17T19:26:54.742Z,54.90
2023-01-17T19:29:23.403Z,54.56
2023-01-17T19:31:53.477Z,54.83
2023-01-17T19:34:22.177Z,55.18
2023-01-17T19:36:53.816Z,55.04
2023-01-17T19:39:26.217Z,55.19
2023-01-17T19:41:54.696Z,55.07
2023-01-17T19:44:23.493Z,55.11
2023-01-17T19:46:51.920Z,55.79
2023-01-17T19:49:25.242Z,55.37
2023-01-17T19:51:53.929Z,55.25
2023-01-17T19:54:23.809Z,54.83
2023-01-17T19:56:52.325Z,55.12
2023-01-17T19:59:20.939Z,55.49
2023-01-17T20:01:50.214Z,55.52
2023-01-17T20:04:19.436Z,55.26
2023-01-17T20:06:48.109Z,55.45
2023-01-17T20:09:16.896Z,55.02
2023-01-17T20:11:46.179Z,55.28
2023-01-17T20:14:16.005Z,55.43
2023-01-17T20:16:48.063Z,55.92
2023-01-17T20:19:17.276Z,55.51
2023-01-17T20:21:45.762Z,55.62
2023-01-17T20:24:14.836Z,56.02
2023-01-17T20:26:44.644Z,55.64
2023-01-17T20:29:15.947Z,55.50
2023-01-17T20:31:45.851Z,55.31
2023-01-17T20:34:16.857Z,55.70
2023-01-17T20:36:46.170Z,55.56
2023-01-17T20:39:15.817Z,55.47
2023-01-17T20:41:46.806Z,55.73
2023-01-17T20:44:16.662Z,55.43
2023-01-17T20:46:46.057Z,55.34
2023-01-17T20:49:19.675Z,55.26
2023-01-17T20:51:48.982Z,55.60
2023-01-17T20:54:19.216Z,55.31
2023-01-17T20:56:48.688Z,55.39
2023-01-17T20:59:22.888Z,55.38
2023-01-17T21:01:52.422Z,55.58
2023-01-17T21:04:26.600Z,55.51
2023-01-17T21:06:56.017Z,55.30
2023-01-17T21:09:24.902Z,55.18
2023-01-17T21:11:54.997Z,55.72
2023-01-17T21:14:23.755Z,55.29
2023-01-17T21:16:52.368Z,55.47
2023-01-17T21:19:21.245Z,55.49
2023-01-17T21:21:50.676Z,55.35
2023-01-17T21:24:20.340Z,55.54
2023-01-17T21:26:52.060Z,55.86
2023-01-17T21:29:21.041Z,55.26
2023-01-17T21:31:49.802Z,55.31
2023-01-17T21:34:18.447Z,55.83
2023-01-17T21:36:47.016Z,56.02
2023-01-17T21:39:19.237Z,56.09
2023-01-17T21:41:51.195Z,55.85
2023-01-17T21:44:22.964Z,55.86
2023-01-17T21:46:56.467Z,56.68
2023-01-17T21:49:25.659Z,56.23
2023-01-17T21:51:54.323Z,56.38
2023-01-17T21:54:46.380Z,57.18
2023-01-17T21:57:39.149Z,56.95
2023-01-17T22:00:11.236Z,57.09
2023-01-17T22:02:40.595Z,56.78
2023-01-17T22:05:10.909Z,56.83
2023-01-17T22:07:40.117Z,57.20
2023-01-17T22:10:09.254Z,57.02
2023-01-17T22:12:37.758Z,57.56
2023-01-17T22:15:07.421Z,57.52
2023-01-17T22:17:39.033Z,57.37
2023-01-17T22:20:09.596Z,56.78
2023-01-17T22:22:38.438Z,57.33
2023-01-17T22:25:07.461Z,57.90
2023-01-17T22:27:36.123Z,58.00
2023-01-17T22:30:05.267Z,57.36
2023-01-17T22:32:33.928Z,57.50
2023-01-17T22:35:03.944Z,57.78
2023-01-17T22:37:35.217Z,57.32
2023-01-17T22:40:05.756Z,58.00
2023-01-17T22:42:37.602Z,57.41
2023-01-17T22:45:08.476Z,57.78
2023-01-17T22:47:37.996Z,57.10
2023-01-17T22:50:07.447Z,57.18
2023-01-17T22:52:36.643Z,57.58
2023-01-17T22:55:06.237Z,58.51
2023-01-17T22:57:35.178Z,57.42
2023-01-17T23:00:15.186Z,57.27
2023-01-17T23:02:43.911Z,58.17
2023-01-17T23:05:12.704Z,58.21
2023-01-17T23:07:47.219Z,58.20
2023-01-17T23:10:35.966Z,57.71
2023-01-17T23:13:04.554Z,58.06
2023-01-17T23:15:51.681Z,58.12
2023-01-17T23:18:43.318Z,58.53
2023-01-17T23:21:13.266Z,57.36
2023-01-17T23:23:44.511Z,57.39
2023-01-17T23:26:13.035Z,58.53
2023-01-17T23:28:41.897Z,57.90
2023-01-17T23:31:13.275Z,58.32
2023-01-17T23:33:42.178Z,58.59
2023-01-17T23:36:10.819Z,57.46
2023-01-17T23:38:44.460Z,58.59
2023-01-17T23:41:31.167Z,57.54
2023-01-17T23:44:00.154Z,58.17
2023-01-17T23:46:30.770Z,58.42
2023-01-17T23:48:59.775Z,58.70
2023-01-17T23:51:30.121Z,58.08
2023-01-17T23:54:06.025Z,58.06
2023-01-17T23:56:34.703Z,58.89
2023-01-17T23:59:05.136Z,57.89
